Time;durP1;ratioP1;P1;durP2;ratioP2;P2;SDS_P1;SDS_P2;PMS_P1;PMS_P2;Temp;Humidity;BMP_temperature;BMP_pressure;BME280_temperature;BME280_humidity;BME280_pressure;Samples;Min_cycle;Max_cycle;Signal;HPM_P1;HPM_P2
2021/06/30 00:00:27;;;;;;;3.90;3.20;;;17.70;86.10;;;;;;5059929;28;21054;-41
2021/06/30 00:02:59;;;;;;;7.10;3.00;;;17.70;86.10;;;;;;5061279;28;20538;-41
2021/06/30 00:05:31;;;;;;;5.67;3.20;;;17.70;85.90;;;;;;5056708;28;20492;-41
2021/06/30 00:08:03;;;;;;;6.13;3.43;;;17.70;86.10;;;;;;5087832;28;20550;-41
2021/06/30 00:10:35;;;;;;;4.23;3.50;;;17.70;85.80;;;;;;5056993;28;20474;-41
2021/06/30 00:13:09;;;;;;;3.87;3.37;;;17.80;85.70;;;;;;5057234;28;20561;-41
2021/06/30 00:15:42;;;;;;;6.27;4.20;;;17.70;85.80;;;;;;5059747;28;20485;-41
2021/06/30 00:18:14;;;;;;;4.20;3.43;;;17.70;85.90;;;;;;5058815;28;21029;-41
2021/06/30 00:20:46;;;;;;;3.83;3.50;;;17.70;85.80;;;;;;5056110;28;20501;-41
2021/06/30 00:23:18;;;;;;;8.60;4.00;;;17.70;85.90;;;;;;5060909;28;20485;-41
2021/06/30 00:25:50;;;;;;;7.57;4.10;;;17.60;86.00;;;;;;5060015;28;20446;-41
2021/06/30 00:28:22;;;;;;;4.07;3.20;;;17.60;86.10;;;;;;5083874;28;20558;-41
2021/06/30 00:30:53;;;;;;;4.03;3.63;;;17.60;86.20;;;;;;5054190;28;20557;-41
2021/06/30 00:33:25;;;;;;;13.20;5.60;;;17.60;86.20;;;;;;5058242;28;20552;-41
2021/06/30 00:35:57;;;;;;;7.93;3.90;;;17.70;86.20;;;;;;5059246;28;20454;-41
2021/06/30 00:38:29;;;;;;;3.90;3.57;;;17.70;86.00;;;;;;5057529;28;20549;-41
2021/06/30 00:41:00;;;;;;;4.80;4.27;;;17.70;86.10;;;;;;5071033;28;20954;-41
2021/06/30 00:43:33;;;;;;;5.43;3.73;;;17.70;86.20;;;;;;5058998;28;20561;-41
2021/06/30 00:46:05;;;;;;;6.07;3.80;;;17.70;86.10;;;;;;5084793;28;20542;-41
2021/06/30 00:48:39;;;;;;;4.87;4.00;;;17.60;86.20;;;;;;5054735;28;20476;-41
2021/06/30 00:51:11;;;;;;;7.17;3.90;;;17.60;86.30;;;;;;5057551;28;20548;-41
2021/06/30 00:53:43;;;;;;;7.77;4.67;;;17.50;86.30;;;;;;5043540;28;21330;-41
2021/06/30 00:56:22;;;;;;;4.93;3.77;;;17.50;86.40;;;;;;5057319;28;21050;-41
2021/06/30 00:58:57;;;;;;;11.63;4.03;;;17.50;86.30;;;;;;5055654;28;20823;-41
2021/06/30 01:01:28;;;;;;;4.53;4.13;;;17.50;86.30;;;;;;5056713;28;21097;-41
2021/06/30 01:04:00;;;;;;;4.10;3.40;;;17.50;86.30;;;;;;5056874;28;20450;-41
2021/06/30 01:06:32;;;;;;;6.00;3.63;;;17.50;86.20;;;;;;5056769;28;20549;-41
2021/06/30 01:09:08;;;;;;;5.77;3.57;;;17.50;86.40;;;;;;5060843;28;20941;-41
2021/06/30 01:11:42;;;;;;;7.33;4.30;;;17.50;86.20;;;;;;5060721;28;20573;-41
2021/06/30 01:14:28;;;;;;;6.03;3.87;;;17.50;86.10;;;;;;5051852;28;20474;-41
2021/06/30 01:17:03;;;;;;;3.93;3.53;;;17.50;86.30;;;;;;5061453;28;20573;-41
2021/06/30 01:19:37;;;;;;;7.03;3.30;;;17.50;86.30;;;;;;5057495;28;20764;-41
2021/06/30 01:22:09;;;;;;;5.63;4.30;;;17.40;86.40;;;;;;5060058;28;20545;-41
2021/06/30 01:24:40;;;;;;;8.03;4.00;;;17.40;86.40;;;;;;5055896;28;20454;-41
2021/06/30 01:27:15;;;;;;;4.23;3.93;;;17.40;86.40;;;;;;5056973;28;20462;-41
2021/06/30 01:29:47;;;;;;;7.23;3.63;;;17.40;86.10;;;;;;5055195;28;20544;-41
2021/06/30 01:32:19;;;;;;;4.17;3.80;;;17.40;86.00;;;;;;5054884;28;20549;-41
2021/06/30 01:34:54;;;;;;;5.47;4.10;;;17.30;85.90;;;;;;5053404;28;20813;-41
2021/06/30 01:37:26;;;;;;;6.30;3.67;;;17.30;86.00;;;;;;5052663;28;20584;-41
2021/06/30 01:39:58;;;;;;;5.43;4.20;;;17.30;86.10;;;;;;5055312;28;20497;-41
2021/06/30 01:42:29;;;;;;;3.90;3.53;;;17.30;86.30;;;;;;5057104;28;20459;-41
2021/06/30 01:45:01;;;;;;;6.50;4.10;;;17.30;86.50;;;;;;5058629;28;20680;-41
2021/06/30 01:47:33;;;;;;;4.23;3.77;;;17.30;86.70;;;;;;5059582;28;20561;-41
2021/06/30 01:50:06;;;;;;;4.47;3.97;;;17.30;86.60;;;;;;5057740;28;20553;-41
2021/06/30 01:52:40;;;;;;;6.30;4.53;;;17.30;86.60;;;;;;5061005;28;20466;-41
2021/06/30 01:55:13;;;;;;;10.13;4.20;;;17.30;86.60;;;;;;5061332;28;20517;-41
2021/06/30 01:57:47;;;;;;;4.13;3.70;;;17.30;86.60;;;;;;5063620;28;20580;-41
2021/06/30 02:00:17;;;;;;;4.53;3.37;;;17.30;86.60;;;;;;5057540;28;20836;-41
2021/06/30 02:02:49;;;;;;;6.73;4.00;;;17.30;86.60;;;;;;5084800;28;20449;-41
2021/06/30 02:05:22;;;;;;;4.73;4.20;;;17.30;86.50;;;;;;5058603;28;20541;-41
2021/06/30 02:07:57;;;;;;;4.63;3.90;;;17.30;86.30;;;;;;5063391;28;20520;-41
2021/06/30 02:10:30;;;;;;;9.63;3.40;;;17.20;86.20;;;;;;5056934;28;20838;-41
2021/06/30 02:13:02;;;;;;;5.00;3.60;;;17.20;86.30;;;;;;5064766;28;20553;-41
2021/06/30 02:15:37;;;;;;;6.20;3.50;;;17.20;86.30;;;;;;5061443;28;20938;-41
2021/06/30 02:18:09;;;;;;;6.07;2.80;;;17.20;86.20;;;;;;5064362;28;20577;-41
2021/06/30 02:20:41;;;;;;;4.90;4.30;;;17.20;86.10;;;;;;5064479;28;21123;-41
2021/06/30 02:23:13;;;;;;;4.03;3.20;;;17.20;85.90;;;;;;5060811;28;20545;-41
2021/06/30 02:25:45;;;;;;;6.67;3.80;;;17.20;85.90;;;;;;5061892;28;20546;-41
2021/06/30 02:28:17;;;;;;;8.33;3.53;;;17.20;85.80;;;;;;5063267;28;20557;-41
2021/06/30 02:30:49;;;;;;;3.40;3.10;;;17.30;85.30;;;;;;5058336;28;20549;-41
2021/06/30 02:33:21;;;;;;;4.90;3.03;;;17.30;84.50;;;;;;5060214;28;20498;-41
2021/06/30 02:35:55;;;;;;;5.53;2.87;;;17.30;84.50;;;;;;5060535;28;20596;-44
2021/06/30 02:38:27;;;;;;;4.17;3.27;;;17.20;84.80;;;;;;5059407;28;20532;-46
2021/06/30 02:40:58;;;;;;;4.33;3.60;;;17.20;85.10;;;;;;5059127;28;20459;-44
2021/06/30 02:43:30;;;;;;;4.13;3.13;;;17.10;85.10;;;;;;5058102;28;20455;-44
2021/06/30 02:46:02;;;;;;;3.30;3.00;;;17.10;85.10;;;;;;5060401;28;20934;-44
2021/06/30 02:48:34;;;;;;;6.93;3.83;;;17.10;84.70;;;;;;5067489;28;20549;-43
2021/06/30 02:51:06;;;;;;;4.40;3.30;;;17.10;84.50;;;;;;5059742;28;20540;-44
2021/06/30 02:53:33;;;;;;;4.70;3.50;;;17.10;84.30;;;;;;5059961;28;20477;-43
2021/06/30 02:56:14;;;;;;;5.30;3.13;;;17.10;84.40;;;;;;5085143;28;20549;-43
2021/06/30 02:58:48;;;;;;;3.70;3.27;;;17.10;84.40;;;;;;5060107;28;20455;-44
2021/06/30 03:01:20;;;;;;;4.53;3.30;;;17.10;84.30;;;;;;5058277;28;21055;-44
2021/06/30 03:03:51;;;;;;;3.67;3.37;;;17.10;84.20;;;;;;5059135;28;20465;-44
2021/06/30 03:06:23;;;;;;;4.83;3.20;;;17.00;84.10;;;;;;5059464;28;20456;-44
2021/06/30 03:08:54;;;;;;;10.30;3.13;;;17.00;84.30;;;;;;5058351;28;20486;-44
2021/06/30 03:11:26;;;;;;;5.17;3.03;;;16.90;84.30;;;;;;5057572;28;20554;-44
2021/06/30 03:13:58;;;;;;;9.30;3.20;;;16.80;84.40;;;;;;5057159;28;20472;-44
2021/06/30 03:16:29;;;;;;;9.10;3.27;;;16.80;84.50;;;;;;5056252;28;20848;-44
2021/06/30 03:19:01;;;;;;;5.23;3.13;;;16.80;84.50;;;;;;5055801;28;20608;-44
2021/06/30 03:21:33;;;;;;;5.07;3.33;;;16.70;84.60;;;;;;5058118;28;20958;-44
2021/06/30 03:24:04;;;;;;;4.70;3.40;;;16.70;84.60;;;;;;5056345;28;20524;-44
2021/06/30 03:26:36;;;;;;;5.23;3.50;;;16.70;84.80;;;;;;5083403;28;20548;-44
2021/06/30 03:29:08;;;;;;;3.33;3.03;;;16.70;84.80;;;;;;5063751;28;20580;-44
2021/06/30 03:31:39;;;;;;;5.20;3.60;;;16.70;84.90;;;;;;5054068;28;20501;-44
2021/06/30 03:34:11;;;;;;;5.53;3.63;;;16.70;84.90;;;;;;5054013;28;20480;-44
2021/06/30 03:36:43;;;;;;;6.10;4.70;;;16.70;85.00;;;;;;5059094;28;20570;-43
2021/06/30 03:39:15;;;;;;;6.30;3.40;;;16.60;85.20;;;;;;5084885;28;20453;-44
2021/06/30 03:41:47;;;;;;;3.27;2.63;;;16.70;85.20;;;;;;5054892;28;20454;-44
2021/06/30 03:44:18;;;;;;;4.40;3.27;;;16.60;85.20;;;;;;5064718;28;20539;-44
2021/06/30 03:46:50;;;;;;;4.10;3.10;;;16.60;85.30;;;;;;5058392;28;20538;-44
2021/06/30 03:49:22;;;;;;;4.33;3.93;;;16.60;85.30;;;;;;5056394;28;20459;-44
2021/06/30 03:51:54;;;;;;;4.57;3.67;;;16.60;85.20;;;;;;5054902;28;20467;-43
2021/06/30 03:54:26;;;;;;;4.40;3.90;;;16.60;85.00;;;;;;5054409;28;21116;-44
2021/06/30 03:56:57;;;;;;;5.30;3.60;;;16.60;85.00;;;;;;5054826;28;20485;-43
2021/06/30 03:59:29;;;;;;;4.77;4.27;;;16.60;85.10;;;;;;5056388;28;20481;-44
2021/06/30 04:02:01;;;;;;;4.27;3.87;;;16.50;85.30;;;;;;5056996;28;20513;-44
2021/06/30 04:04:32;;;;;;;5.83;3.50;;;16.60;85.40;;;;;;5055343;28;20485;-44
2021/06/30 04:07:05;;;;;;;7.30;3.20;;;16.50;85.50;;;;;;5052951;28;20494;-44
2021/06/30 04:09:36;;;;;;;7.30;3.80;;;16.60;85.60;;;;;;5053324;28;20564;-44
2021/06/30 04:12:08;;;;;;;4.73;3.90;;;16.60;85.70;;;;;;5057475;28;20527;-44
2021/06/30 04:14:40;;;;;;;7.17;4.03;;;16.60;85.70;;;;;;5056974;28;20541;-44
2021/06/30 04:17:12;;;;;;;5.43;3.73;;;16.60;85.60;;;;;;5054613;28;20557;-43
2021/06/30 04:19:44;;;;;;;5.80;3.97;;;16.60;85.60;;;;;;5054874;28;20462;-44
2021/06/30 04:22:16;;;;;;;5.40;3.90;;;16.60;85.70;;;;;;5055233;28;20549;-44
2021/06/30 04:24:48;;;;;;;5.47;4.40;;;16.70;85.70;;;;;;5053645;28;20470;-44
2021/06/30 04:27:20;;;;;;;6.43;3.70;;;16.70;85.70;;;;;;5082053;28;20963;-44
2021/06/30 04:29:51;;;;;;;4.53;2.90;;;16.70;85.70;;;;;;5052585;28;20554;-44
2021/06/30 04:32:24;;;;;;;6.60;5.70;;;16.80;85.60;;;;;;5055509;28;20545;-44
2021/06/30 04:34:55;;;;;;;7.00;4.33;;;16.80;85.60;;;;;;5057752;28;20462;-44
2021/06/30 04:37:27;;;;;;;5.20;4.03;;;16.90;84.50;;;;;;5060926;28;20980;-44
2021/06/30 04:40:04;;;;;;;5.83;3.37;;;16.80;84.60;;;;;;5065424;28;20995;-44
2021/06/30 04:42:35;;;;;;;6.60;3.47;;;16.80;84.30;;;;;;5085077;28;20505;-44
2021/06/30 04:45:07;;;;;;;7.70;3.60;;;16.80;84.20;;;;;;5054976;28;20460;-44
2021/06/30 04:47:39;;;;;;;6.27;4.50;;;16.80;84.30;;;;;;5055814;28;20561;-44
2021/06/30 04:50:11;;;;;;;4.60;3.23;;;16.80;84.70;;;;;;5053329;28;20870;-44
2021/06/30 04:52:43;;;;;;;9.33;4.50;;;16.80;84.70;;;;;;5056941;28;20528;-44
2021/06/30 04:55:14;;;;;;;6.83;4.60;;;16.80;84.70;;;;;;5053536;28;20500;-43
2021/06/30 04:57:46;;;;;;;7.50;4.43;;;16.80;84.60;;;;;;5055387;28;20571;-44
2021/06/30 05:00:18;;;;;;;10.27;4.90;;;16.80;84.80;;;;;;5084902;28;20832;-44
2021/06/30 05:02:50;;;;;;;6.47;4.60;;;16.70;84.90;;;;;;5055935;28;20486;-44
2021/06/30 05:05:17;;;;;;;6.17;4.70;;;16.70;84.90;;;;;;5042114;28;20938;-44
2021/06/30 05:07:49;;;;;;;5.77;4.80;;;16.70;85.60;;;;;;5055618;28;20532;-43
2021/06/30 05:10:20;;;;;;;6.90;4.50;;;16.70;85.60;;;;;;5056935;28;20481;-44
2021/06/30 05:12:52;;;;;;;8.50;4.37;;;16.70;85.70;;;;;;5082949;28;20553;-43
2021/06/30 05:15:24;;;;;;;6.03;3.97;;;16.70;85.40;;;;;;5052263;28;20509;-44
2021/06/30 05:17:58;;;;;;;5.30;4.40;;;16.80;85.00;;;;;;5058756;28;21204;-43
2021/06/30 05:20:30;;;;;;;4.97;4.47;;;16.80;84.80;;;;;;5067240;28;20667;-44
2021/06/30 05:23:02;;;;;;;5.83;4.40;;;16.80;84.70;;;;;;5060902;28;20498;-44
2021/06/30 05:25:35;;;;;;;4.63;4.13;;;16.80;84.80;;;;;;5060615;28;20557;-44
2021/06/30 05:28:07;;;;;;;6.70;4.30;;;16.90;84.40;;;;;;5060704;28;20504;-44
2021/06/30 05:30:39;;;;;;;6.20;5.30;;;16.90;84.70;;;;;;5058569;28;20897;-43
2021/06/30 05:33:11;;;;;;;7.70;5.50;;;16.90;84.50;;;;;;5091138;28;20492;-44
2021/06/30 05:35:43;;;;;;;7.63;5.10;;;17.00;84.40;;;;;;5065067;28;20545;-44
2021/06/30 05:38:15;;;;;;;6.23;5.10;;;17.00;83.90;;;;;;5059966;28;20478;-43
2021/06/30 05:40:47;;;;;;;5.30;4.10;;;17.00;83.50;;;;;;5059557;28;20948;-44
2021/06/30 05:43:19;;;;;;;6.67;5.03;;;17.10;83.80;;;;;;5063156;28;20541;-44
2021/06/30 05:45:51;;;;;;;8.47;5.13;;;17.10;84.20;;;;;;5061467;28;20493;-44
2021/06/30 05:48:23;;;;;;;5.07;4.57;;;17.10;84.30;;;;;;5059167;28;22016;-44
2021/06/30 05:50:49;;;;;;;6.93;3.83;;;17.10;84.00;;;;;;5061184;28;20459;-45
2021/06/30 05:53:21;;;;;;;7.07;5.03;;;17.10;83.60;;;;;;5058536;28;20546;-45
2021/06/30 05:55:53;;;;;;;5.00;4.13;;;17.10;83.70;;;;;;5062860;28;20482;-45
2021/06/30 05:58:24;;;;;;;5.33;4.87;;;17.20;83.50;;;;;;5061678;28;20823;-45
2021/06/30 06:00:56;;;;;;;6.13;4.50;;;17.20;83.60;;;;;;5065027;28;20489;-45
2021/06/30 06:03:28;;;;;;;7.20;5.27;;;17.20;83.50;;;;;;5055443;28;20467;-44
2021/06/30 06:06:00;;;;;;;4.97;4.30;;;17.20;83.20;;;;;;5066353;28;20862;-45
2021/06/30 06:08:32;;;;;;;6.37;5.17;;;17.20;83.00;;;;;;5060942;28;20546;-44
2021/06/30 06:11:10;;;;;;;6.50;4.50;;;17.20;83.30;;;;;;5058676;28;20535;-44
2021/06/30 06:13:45;;;;;;;5.63;5.00;;;17.30;83.30;;;;;;5059835;28;21045;-44
2021/06/30 06:16:20;;;;;;;5.90;4.93;;;17.30;82.80;;;;;;5058185;28;20476;-44
2021/06/30 06:18:52;;;;;;;7.23;5.10;;;17.30;82.50;;;;;;5056625;28;20591;-45
2021/06/30 06:21:24;;;;;;;10.67;5.27;;;17.30;82.90;;;;;;5058939;28;20544;-44
2021/06/30 06:23:56;;;;;;;8.13;5.47;;;17.40;82.70;;;;;;5059138;28;20486;-44
2021/06/30 06:26:28;;;;;;;7.17;5.40;;;17.40;82.60;;;;;;5059227;28;21026;-44
2021/06/30 06:28:59;;;;;;;10.17;6.73;;;17.40;82.70;;;;;;5056608;28;20453;-44
2021/06/30 06:31:31;;;;;;;7.90;5.83;;;17.40;82.90;;;;;;5059960;28;20497;-44
2021/06/30 06:34:03;;;;;;;12.73;5.73;;;17.40;83.00;;;;;;5062215;28;20912;-44
2021/06/30 06:36:35;;;;;;;9.30;7.03;;;17.40;83.00;;;;;;5059989;28;20490;-44
2021/06/30 06:39:07;;;;;;;9.70;7.37;;;17.50;82.80;;;;;;5059916;28;20857;-44
2021/06/30 06:41:39;;;;;;;9.80;7.20;;;17.50;82.70;;;;;;5057846;28;20815;-44
2021/06/30 06:44:10;;;;;;;11.80;7.53;;;17.50;82.60;;;;;;5061225;28;21000;-44
2021/06/30 06:46:42;;;;;;;9.03;7.67;;;17.60;82.70;;;;;;5089639;28;20545;-44
2021/06/30 06:49:14;;;;;;;8.80;7.30;;;17.60;83.10;;;;;;5064001;28;20994;-45
2021/06/30 06:51:46;;;;;;;10.87;8.10;;;17.70;82.90;;;;;;5055670;28;20546;-44
2021/06/30 06:54:18;;;;;;;13.03;7.63;;;17.80;82.30;;;;;;5055352;28;20510;-44
2021/06/30 06:56:50;;;;;;;8.47;6.80;;;17.80;82.10;;;;;;5055132;28;21954;-44
2021/06/30 06:59:22;;;;;;;10.13;7.30;;;17.80;81.70;;;;;;5058241;28;20521;-44
2021/06/30 07:01:54;;;;;;;13.97;8.93;;;17.90;81.80;;;;;;5060226;28;20576;-44
2021/06/30 07:04:26;;;;;;;8.90;7.83;;;17.90;82.10;;;;;;5062941;28;20549;-44
2021/06/30 07:06:57;;;;;;;6.90;5.87;;;18.00;82.30;;;;;;5053061;28;20501;-45
2021/06/30 07:09:31;;;;;;;10.00;6.23;;;18.10;82.10;;;;;;5053923;28;20493;-44
2021/06/30 07:12:03;;;;;;;19.00;9.37;;;18.10;81.70;;;;;;5019703;28;1123573;-44
2021/06/30 07:14:35;;;;;;;7.53;6.30;;;18.10;81.00;;;;;;5059165;28;20623;-45
2021/06/30 07:17:07;;;;;;;8.03;7.30;;;18.20;81.20;;;;;;5058273;28;20944;-44
2021/06/30 07:19:41;;;;;;;7.13;5.50;;;18.20;80.90;;;;;;5055316;28;20999;-45
2021/06/30 07:22:10;;;;;;;6.30;5.80;;;18.20;80.20;;;;;;5054628;28;20454;-45
2021/06/30 07:24:41;;;;;;;10.10;6.13;;;18.20;80.00;;;;;;5057336;28;20484;-44
2021/06/30 07:27:08;;;;;;;6.77;6.17;;;18.20;80.20;;;;;;5057954;28;20514;-45
2021/06/30 07:29:40;;;;;;;9.47;5.77;;;18.30;80.40;;;;;;5065548;28;20464;-44
2021/06/30 07:32:16;;;;;;;7.53;5.27;;;18.30;80.50;;;;;;5087265;28;20540;-45
2021/06/30 07:34:48;;;;;;;5.83;5.23;;;18.30;79.70;;;;;;5057131;28;20881;-44
2021/06/30 07:37:20;;;;;;;6.00;5.40;;;18.30;79.70;;;;;;5065471;28;20466;-44
2021/06/30 07:39:52;;;;;;;6.37;5.70;;;18.40;79.50;;;;;;5062304;28;20577;-45
2021/06/30 07:42:21;;;;;;;6.37;4.90;;;18.50;79.30;;;;;;5066529;28;21002;-45
2021/06/30 07:44:52;;;;;;;7.80;5.30;;;18.60;79.70;;;;;;5062276;28;20482;-45
2021/06/30 07:47:19;;;;;;;6.97;5.57;;;18.70;78.80;;;;;;5063777;28;20466;-44
2021/06/30 07:49:46;;;;;;;7.23;5.20;;;18.70;78.70;;;;;;5062911;28;20454;-45
2021/06/30 07:52:15;;;;;;;5.63;5.13;;;18.90;78.50;;;;;;5060070;28;20454;-45
2021/06/30 07:54:42;;;;;;;5.13;4.73;;;19.00;78.20;;;;;;5060285;28;20537;-45
2021/06/30 07:57:09;;;;;;;9.70;5.90;;;19.10;77.40;;;;;;5088544;28;20549;-45
2021/06/30 07:59:35;;;;;;;6.53;4.17;;;19.10;77.20;;;;;;5063880;28;20485;-45
2021/06/30 08:02:02;;;;;;;6.20;4.70;;;19.20;76.00;;;;;;5059369;28;20567;-45
2021/06/30 08:04:29;;;;;;;4.73;4.33;;;19.20;75.20;;;;;;5066000;28;20458;-44
2021/06/30 08:06:56;;;;;;;6.17;5.40;;;19.10;75.70;;;;;;5062524;28;20487;-44
2021/06/30 08:09:23;;;;;;;6.37;5.67;;;19.10;75.20;;;;;;5063632;28;20489;-45
2021/06/30 08:11:59;;;;;;;7.03;6.07;;;19.00;76.00;;;;;;5065913;28;20472;-45
2021/06/30 08:14:25;;;;;;;6.50;5.60;;;19.00;77.10;;;;;;5059604;28;20468;-45
2021/06/30 08:16:52;;;;;;;5.87;5.27;;;19.00;78.00;;;;;;5062761;28;20464;-44
2021/06/30 08:19:19;;;;;;;5.47;4.97;;;19.10;77.20;;;;;;5060283;28;20490;-44
2021/06/30 08:21:46;;;;;;;4.40;4.00;;;19.10;76.80;;;;;;5088595;28;20454;-45
2021/06/30 08:24:14;;;;;;;5.50;4.07;;;19.10;76.40;;;;;;5060453;28;20462;-45
2021/06/30 08:26:41;;;;;;;4.53;4.13;;;19.10;76.60;;;;;;5058689;28;20826;-45
2021/06/30 08:29:09;;;;;;;4.57;3.17;;;19.10;76.30;;;;;;5060778;28;20447;-44
2021/06/30 08:31:36;;;;;;;4.20;3.27;;;19.10;75.00;;;;;;5063760;28;20458;-45
2021/06/30 08:34:02;;;;;;;3.40;2.43;;;19.00;75.20;;;;;;5062130;28;20470;-45
2021/06/30 08:36:29;;;;;;;2.20;2.00;;;19.00;74.30;;;;;;5064886;28;20452;-45
2021/06/30 08:38:56;;;;;;;3.30;2.10;;;19.00;74.20;;;;;;5061403;28;20546;-45
2021/06/30 08:41:23;;;;;;;3.03;2.20;;;19.00;74.30;;;;;;5065170;28;20532;-45
2021/06/30 08:43:49;;;;;;;2.10;1.90;;;19.00;74.80;;;;;;5062653;28;20581;-45
2021/06/30 08:46:19;;;;;;;2.37;2.13;;;19.00;74.20;;;;;;5064842;28;20453;-45
2021/06/30 08:48:49;;;;;;;2.83;2.63;;;19.10;74.00;;;;;;5060071;28;20496;-45
2021/06/30 08:51:22;;;;;;;3.50;2.10;;;19.20;74.90;;;;;;5087033;28;20468;-45
2021/06/30 08:53:50;;;;;;;2.27;2.07;;;19.30;74.40;;;;;;5057798;28;20461;-45
2021/06/30 08:56:19;;;;;;;9.20;2.60;;;19.40;73.90;;;;;;5061291;28;20981;-45
2021/06/30 08:58:50;;;;;;;3.83;2.23;;;19.60;73.40;;;;;;5058963;28;20498;-45
2021/06/30 09:01:17;;;;;;;2.30;2.10;;;19.70;71.90;;;;;;5087531;28;20454;-44
2021/06/30 09:03:49;;;;;;;4.00;2.27;;;19.70;70.90;;;;;;5066717;28;20447;-45
2021/06/30 09:06:17;;;;;;;2.53;2.00;;;19.80;71.10;;;;;;5065447;28;20444;-45
2021/06/30 09:08:47;;;;;;;2.50;2.30;;;19.80;71.50;;;;;;5063959;28;20513;-45
2021/06/30 09:11:20;;;;;;;2.40;2.17;;;19.80;71.10;;;;;;5060110;28;20470;-45
2021/06/30 09:14:07;;;;;;;2.93;2.20;;;19.80;71.80;;;;;;5089003;28;20970;-45
2021/06/30 09:17:04;;;;;;;2.80;1.40;;;19.90;71.80;;;;;;5059352;28;20480;-45
2021/06/30 09:19:57;;;;;;;2.73;2.47;;;19.90;70.70;;;;;;5060874;28;20501;-45
2021/06/30 09:22:27;;;;;;;2.40;2.20;;;19.80;71.10;;;;;;5071304;28;20450;-45
2021/06/30 09:24:56;;;;;;;4.27;1.70;;;19.80;70.60;;;;;;5060726;28;20461;-45
2021/06/30 09:27:38;;;;;;;2.57;1.87;;;19.80;71.10;;;;;;5057463;28;20955;-45
2021/06/30 09:30:09;;;;;;;2.23;2.03;;;19.80;70.20;;;;;;5056981;28;20561;-45
2021/06/30 09:32:51;;;;;;;2.83;2.50;;;19.70;70.80;;;;;;5084501;28;20458;-45
2021/06/30 09:35:36;;;;;;;2.87;2.60;;;19.70;71.40;;;;;;5063033;28;20461;-45
2021/06/30 09:38:32;;;;;;;1.83;1.70;;;19.60;72.40;;;;;;5056857;28;20524;-45
2021/06/30 09:41:00;;;;;;;5.90;2.20;;;19.70;70.90;;;;;;5053691;28;20463;-46
2021/06/30 09:43:29;;;;;;;1.90;1.80;;;19.70;71.10;;;;;;5055942;28;20469;-46
2021/06/30 09:45:58;;;;;;;2.23;1.93;;;19.70;71.60;;;;;;5056317;28;20457;-46
2021/06/30 09:48:33;;;;;;;1.80;1.67;;;19.90;71.60;;;;;;5051208;28;20498;-45
2021/06/30 09:51:03;;;;;;;6.93;2.00;;;20.20;69.50;;;;;;5055853;28;20462;-46
2021/06/30 09:53:41;;;;;;;2.67;1.60;;;20.40;68.40;;;;;;5048048;28;20476;-45
2021/06/30 09:56:34;;;;;;;3.83;2.47;;;20.60;68.50;;;;;;5052260;28;20465;-45
2021/06/30 09:59:09;;;;;;;2.70;2.50;;;20.70;68.20;;;;;;5054392;28;20494;-45
2021/06/30 10:01:36;;;;;;;3.90;2.10;;;20.70;66.60;;;;;;5058494;28;20465;-46
2021/06/30 10:04:04;;;;;;;2.30;2.00;;;20.70;67.00;;;;;;5057100;28;20951;-46
2021/06/30 10:06:33;;;;;;;5.03;2.40;;;20.70;68.00;;;;;;5062995;28;20458;-45
2021/06/30 10:09:03;;;;;;;2.73;2.17;;;20.70;68.00;;;;;;5058408;28;20468;-46
2021/06/30 10:11:32;;;;;;;2.30;1.63;;;20.70;68.20;;;;;;5057855;28;20519;-46
2021/06/30 10:14:00;;;;;;;2.73;1.70;;;20.70;67.70;;;;;;5059414;28;20446;-45
2021/06/30 10:16:28;;;;;;;2.17;1.97;;;20.70;68.10;;;;;;5061643;28;20496;-45
2021/06/30 10:18:57;;;;;;;3.60;1.80;;;20.80;67.30;;;;;;5062437;28;20817;-46
2021/06/30 10:21:26;;;;;;;2.27;2.00;;;20.80;66.70;;;;;;5092181;28;20441;-46
2021/06/30 10:23:53;;;;;;;2.50;1.90;;;20.90;64.90;;;;;;5058131;28;20449;-46
2021/06/30 10:26:21;;;;;;;2.10;1.90;;;20.90;64.90;;;;;;5061137;28;20453;-46
2021/06/30 10:28:58;;;;;;;3.93;1.87;;;20.90;66.20;;;;;;5058629;28;20500;-45
2021/06/30 10:31:30;;;;;;;2.53;2.33;;;20.90;65.40;;;;;;5061933;28;21029;-46
2021/06/30 10:33:59;;;;;;;6.40;2.23;;;20.90;64.30;;;;;;5063579;28;20554;-46
2021/06/30 10:36:52;;;;;;;2.83;2.10;;;20.90;65.40;;;;;;5063158;28;20534;-45
2021/06/30 10:39:40;;;;;;;2.83;2.63;;;20.90;65.10;;;;;;5056500;28;20486;-46
2021/06/30 10:42:31;;;;;;;3.40;3.10;;;21.00;64.60;;;;;;5059184;28;20458;-46
2021/06/30 10:45:15;;;;;;;3.90;2.20;;;21.00;65.10;;;;;;5059711;28;20459;-45
2021/06/30 10:47:47;;;;;;;3.43;2.50;;;21.10;64.30;;;;;;5062489;28;20455;-45
2021/06/30 10:50:19;;;;;;;3.13;2.83;;;21.20;64.40;;;;;;5058142;28;20935;-44
2021/06/30 10:53:03;;;;;;;2.90;2.20;;;21.30;64.40;;;;;;5059913;28;20848;-44
2021/06/30 10:55:33;;;;;;;;;;;;;;;;;;;;;
2021/06/30 10:58:14;;;;;;;1.83;1.70;;;21.50;63.70;;;;;;5058047;28;20470;-44
2021/06/30 11:00:43;;;;;;;3.67;1.80;;;21.50;63.10;;;;;;5062214;28;21624;-45
2021/06/30 11:03:25;;;;;;;4.50;2.50;;;21.40;63.30;;;;;;5058092;28;20433;-45
2021/06/30 11:06:17;;;;;;;2.63;1.90;;;21.40;64.10;;;;;;5088931;28;20817;-45
2021/06/30 11:09:09;;;;;;;2.43;2.00;;;21.30;64.00;;;;;;5060370;28;20801;-45
2021/06/30 11:11:36;;;;;;;2.87;2.67;;;21.30;64.10;;;;;;5059592;28;20461;-45
2021/06/30 11:14:11;;;;;;;2.43;2.23;;;21.20;63.50;;;;;;5061161;28;20459;-45
2021/06/30 11:16:41;;;;;;;1.93;1.73;;;21.20;63.20;;;;;;5055125;28;20469;-45
2021/06/30 11:19:18;;;;;;;2.40;2.00;;;21.20;64.00;;;;;;5059098;28;20490;-45
2021/06/30 11:21:46;;;;;;;4.30;3.40;;;21.10;63.60;;;;;;5086270;28;20461;-45
2021/06/30 11:29:56;;;;;;;2.63;2.43;;;21.00;64.40;;;;;;5058118;28;20472;-45
2021/06/30 11:32:38;;;;;;;2.20;2.00;;;21.00;65.10;;;;;;5057652;28;20933;-45
2021/06/30 11:35:09;;;;;;;2.83;2.63;;;21.00;65.20;;;;;;5059773;28;20462;-45
2021/06/30 11:37:41;;;;;;;3.17;2.27;;;21.00;66.50;;;;;;5058118;28;20461;-44
2021/06/30 11:40:16;;;;;;;2.90;2.70;;;21.10;65.30;;;;;;5057336;28;20490;-45
2021/06/30 11:42:49;;;;;;;3.10;2.80;;;21.10;65.90;;;;;;5057036;28;20453;-45
2021/06/30 11:45:16;;;;;;;3.50;2.70;;;21.10;65.50;;;;;;5057669;28;21053;-45
2021/06/30 11:47:43;;;;;;;2.93;2.70;;;21.20;65.20;;;;;;5055718;28;21129;-45
2021/06/30 11:50:17;;;;;;;2.70;2.50;;;21.20;65.00;;;;;;5054947;28;20969;-45
2021/06/30 11:52:44;;;;;;;4.70;3.33;;;21.20;65.30;;;;;;5087181;28;20795;-45
2021/06/30 11:55:12;;;;;;;2.90;2.67;;;21.30;64.50;;;;;;5056651;28;20466;-45
2021/06/30 11:58:00;;;;;;;3.73;2.80;;;21.30;64.80;;;;;;5052636;28;20483;-45
2021/06/30 12:00:29;;;;;;;4.23;2.40;;;21.30;64.90;;;;;;5057630;28;20496;-45
2021/06/30 12:02:58;;;;;;;2.57;2.37;;;21.30;66.30;;;;;;5058434;28;20460;-45
2021/06/30 12:05:27;;;;;;;2.47;2.23;;;21.20;65.60;;;;;;5055235;28;20798;-45
2021/06/30 12:07:56;;;;;;;3.60;2.00;;;21.10;65.40;;;;;;5059269;28;20667;-45
2021/06/30 12:10:25;;;;;;;3.03;2.10;;;21.00;65.90;;;;;;5058520;28;21080;-45
2021/06/30 12:12:52;;;;;;;2.67;1.73;;;20.90;65.60;;;;;;5058809;28;23031;-45
2021/06/30 12:15:20;;;;;;;1.87;1.77;;;20.90;66.10;;;;;;5060861;28;20993;-45
2021/06/30 12:17:49;;;;;;;2.00;1.80;;;20.90;65.60;;;;;;5056333;28;20484;-45
2021/06/30 12:20:19;;;;;;;4.70;3.10;;;20.90;65.90;;;;;;5055723;28;20485;-45
2021/06/30 12:22:46;;;;;;;2.17;1.80;;;20.90;65.60;;;;;;5054547;28;20455;-45
2021/06/30 12:25:19;;;;;;;3.70;2.10;;;20.90;67.40;;;;;;5056680;28;21637;-46
2021/06/30 12:27:45;;;;;;;2.87;2.13;;;20.90;66.60;;;;;;5055348;28;20971;-46
2021/06/30 12:30:21;;;;;;;2.70;2.20;;;20.90;66.20;;;;;;5086771;28;20454;-46
2021/06/30 12:32:53;;;;;;;4.23;2.57;;;20.90;65.60;;;;;;5057376;28;20461;-45
2021/06/30 12:35:25;;;;;;;2.57;2.27;;;20.90;66.20;;;;;;5057894;28;20461;-45
2021/06/30 12:37:57;;;;;;;3.37;2.47;;;21.00;66.20;;;;;;5055761;28;20561;-45
2021/06/30 12:40:44;;;;;;;2.50;2.30;;;21.00;65.10;;;;;;5062098;28;20521;-45
2021/06/30 12:43:16;;;;;;;4.20;2.70;;;21.00;65.10;;;;;;5055618;28;20454;-45
2021/06/30 12:45:47;;;;;;;3.03;2.63;;;21.00;65.90;;;;;;5059069;28;20872;-45
2021/06/30 12:48:19;;;;;;;3.00;2.80;;;21.00;65.60;;;;;;5059831;28;20497;-45
2021/06/30 12:50:47;;;;;;;3.93;2.10;;;21.10;66.10;;;;;;5054380;28;20944;-45
2021/06/30 12:53:22;;;;;;;2.20;2.00;;;21.20;65.10;;;;;;5083336;28;20458;-45
2021/06/30 12:56:09;;;;;;;3.27;2.40;;;21.20;65.10;;;;;;5053457;28;20859;-45
2021/06/30 12:58:46;;;;;;;2.70;2.27;;;21.30;64.90;;;;;;5056787;28;20469;-45
2021/06/30 13:01:36;;;;;;;2.83;2.10;;;21.30;64.70;;;;;;5055912;28;20482;-45
2021/06/30 13:04:07;;;;;;;3.50;2.00;;;21.40;63.80;;;;;;5057053;28;20458;-45
2021/06/30 13:06:47;;;;;;;2.83;2.10;;;21.50;64.20;;;;;;5061098;28;20474;-45
2021/06/30 13:09:15;;;;;;;3.13;2.30;;;21.60;64.10;;;;;;5060879;28;20450;-45
2021/06/30 13:11:48;;;;;;;2.30;2.10;;;21.60;64.20;;;;;;5057059;28;21001;-45
2021/06/30 13:14:17;;;;;;;3.27;2.10;;;21.60;65.00;;;;;;5061429;28;20919;-45
2021/06/30 13:16:59;;;;;;;6.90;2.10;;;21.60;64.70;;;;;;5061005;28;20510;-45
2021/06/30 13:19:31;;;;;;;1.97;1.70;;;21.70;64.80;;;;;;5058109;28;20558;-45